Time;durP1;ratioP1;P1;durP2;ratioP2;P2;SDS_P1;SDS_P2;PMS_P1;PMS_P2;Temp;Humidity;BMP_temperature;BMP_pressure;BME280_temperature;BME280_humidity;BME280_pressure;Samples;Min_cycle;Max_cycle;Signal;HPM_P1;HPM_P2
2022/08/29 00:00:34;;;;;;;;;;;;;;;13.89;79.26;100939.38;5000317;28;1343;-85
2022/08/29 00:02:59;;;;;;;;;;;;;;;13.76;79.20;100942.84;4998777;28;1424;-84
2022/08/29 00:05:25;;;;;;;;;;;;;;;13.72;79.93;100938.19;4964730;28;1641;-84
2022/08/29 00:07:51;;;;;;;;;;;;;;;13.80;79.98;100932.88;4996723;28;1894;-85
2022/08/29 00:10:16;;;;;;;;;;;;;;;13.75;79.08;100938.44;4998578;28;1518;-85
2022/08/29 00:12:42;;;;;;;;;;;;;;;13.50;79.60;100935.94;4984759;28;1494;-85
2022/08/29 00:15:08;;;;;;;;;;;;;;;13.45;79.84;100942.31;4979555;28;1415;-85
2022/08/29 00:17:33;;;;;;;;;;;;;;;13.48;80.75;100946.41;4996739;28;1378;-85
2022/08/29 00:19:58;;;;;;;;;;;;;;;13.22;81.06;100943.06;4996777;28;1770;-84
2022/08/29 00:22:24;;;;;;;;;;;;;;;13.31;80.07;100941.34;4982162;28;1421;-85
2022/08/29 00:24:49;;;;;;;;;;;;;;;13.18;81.24;100929.06;4998675;28;835;-85
2022/08/29 00:27:14;;;;;;;;;;;;;;;13.20;81.05;100939.75;4980740;28;1894;-84
2022/08/29 00:29:39;;;;;;;;;;;;;;;13.19;81.53;100932.63;4995809;28;1592;-85
2022/08/29 00:32:04;;;;;;;;;;;;;;;13.21;81.35;100938.66;4997819;28;1346;-84
2022/08/29 00:34:29;;;;;;;;;;;;;;;13.13;80.76;100936.50;4993851;28;1481;-85
2022/08/29 00:36:55;;;;;;;;;;;;;;;13.30;81.32;100930.63;4997577;28;1410;-83
2022/08/29 00:39:20;;;;;;;;;;;;;;;13.40;79.63;100941.53;4983809;28;1652;-85
2022/08/29 00:41:45;;;;;;;;;;;;;;;13.19;80.84;100936.19;4997306;28;1366;-84
2022/08/29 00:44:10;;;;;;;;;;;;;;;13.14;81.06;100932.69;4981300;28;1511;-85
2022/08/29 00:46:42;;;;;;;;;;;;;;;13.16;80.62;100938.72;4998080;28;1958;-85
2022/08/29 00:49:10;;;;;;;;;;;;;;;13.01;81.78;100936.06;4997382;28;1716;-84
2022/08/29 00:51:36;;;;;;;;;;;;;;;13.09;81.02;100941.75;4986372;28;1331;-83
2022/08/29 00:54:03;;;;;;;;;;;;;;;13.08;81.61;100940.13;4997611;28;1652;-84
2022/08/29 00:56:29;;;;;;;;;;;;;;;12.81;81.43;100943.31;5006278;28;1286;-85
2022/08/29 00:58:57;;;;;;;;;;;;;;;12.93;82.01;100947.66;4994578;28;1811;-84
2022/08/29 01:01:23;;;;;;;;;;;;;;;12.90;81.14;100943.53;4980651;28;1450;-84
2022/08/29 01:03:48;;;;;;;;;;;;;;;12.88;81.01;100946.56;4998754;28;1782;-85
2022/08/29 01:06:14;;;;;;;;;;;;;;;12.94;81.22;100941.84;4989665;28;1963;-85
2022/08/29 01:08:39;;;;;;;;;;;;;;;12.78;81.95;100949.38;4987153;28;1818;-85
2022/08/29 01:13:49;;;;;;;;;;;;;;;12.84;82.77;100952.94;4994596;28;1446;-85
2022/08/29 01:16:15;;;;;;;;;;;;;;;12.85;82.48;100957.28;4987742;28;1267;-84
2022/08/29 01:18:44;;;;;;;;;;;;;;;12.86;81.74;100964.44;4996326;28;1476;-84
2022/08/29 01:21:12;;;;;;;;;;;;;;;12.74;81.62;100963.97;4980233;28;1425;-85
2022/08/29 01:23:38;;;;;;;;;;;;;;;12.71;82.15;100964.53;4995241;28;1636;-85
2022/08/29 01:26:03;;;;;;;;;;;;;;;12.70;81.99;100962.88;4991318;28;1644;-85
2022/08/29 01:28:34;;;;;;;;;;;;;;;12.72;81.99;100966.19;4979484;28;1898;-85
2022/08/29 01:31:02;;;;;;;;;;;;;;;12.65;81.54;100960.19;4983763;28;1533;-85
2022/08/29 01:33:42;;;;;;;;;;;;;;;12.68;81.68;100968.66;4977384;28;1431;-85
2022/08/29 01:36:09;;;;;;;;;;;;;;;12.80;81.40;100971.06;4985165;28;1371;-85
2022/08/29 01:38:34;;;;;;;;;;;;;;;12.80;81.16;100973.81;4996840;28;1389;-84
2022/08/29 01:41:00;;;;;;;;;;;;;;;12.39;81.75;100979.53;4994576;28;1804;-85
2022/08/29 01:43:26;;;;;;;;;;;;;;;12.30;82.73;100983.13;4976128;28;1645;-85
2022/08/29 01:45:51;;;;;;;;;;;;;;;12.31;82.76;100979.28;4970710;28;1366;-84
2022/08/29 01:48:17;;;;;;;;;;;;;;;12.41;82.36;100982.81;4972055;28;1898;-84
2022/08/29 01:50:42;;;;;;;;;;;;;;;12.37;81.92;100975.41;4993062;28;1887;-85
2022/08/29 01:53:07;;;;;;;;;;;;;;;12.39;81.34;100974.03;4981017;28;1578;-85
2022/08/29 01:55:32;;;;;;;;;;;;;;;12.47;81.88;100973.44;4987611;28;1652;-84
2022/08/29 01:57:57;;;;;;;;;;;;;;;12.48;81.54;100982.50;4996534;28;1406;-84
2022/08/29 02:00:22;;;;;;;;;;;;;;;12.29;81.77;100982.31;4979127;28;1646;-85
2022/08/29 02:02:48;;;;;;;;;;;;;;;12.32;82.24;100995.47;4986589;28;1321;-85
2022/08/29 02:05:13;;;;;;;;;;;;;;;11.97;82.32;100940.72;4994366;28;1486;-85
2022/08/29 02:07:38;;;;;;;;;;;;;;;12.17;82.49;100994.69;4995768;28;1962;-84
2022/08/29 02:10:04;;;;;;;;;;;;;;;12.32;82.77;100994.66;4981500;28;1389;-84
2022/08/29 02:12:30;;;;;;;;;;;;;;;12.36;82.13;100992.97;4967751;28;1451;-84
2022/08/29 02:14:55;;;;;;;;;;;;;;;12.30;81.77;100991.38;4990641;28;1300;-84
2022/08/29 02:17:20;;;;;;;;;;;;;;;12.27;82.04;100991.91;4996246;28;1653;-84
2022/08/29 02:19:46;;;;;;;;;;;;;;;12.08;82.07;100992.50;4994523;28;1489;-84
2022/08/29 02:22:11;;;;;;;;;;;;;;;12.20;82.13;100992.22;4995894;28;1144;-85
2022/08/29 02:24:36;;;;;;;;;;;;;;;12.19;82.59;100990.56;4991176;28;1378;-85
2022/08/29 02:27:01;;;;;;;;;;;;;;;12.25;81.09;100992.19;4982682;28;1966;-85
2022/08/29 02:29:26;;;;;;;;;;;;;;;12.05;82.19;100986.78;4966851;28;1664;-85
2022/08/29 02:31:52;;;;;;;;;;;;;;;11.99;81.85;100990.63;4978018;28;1696;-84
2022/08/29 02:34:17;;;;;;;;;;;;;;;11.80;83.20;100987.66;4995527;28;1393;-85
2022/08/29 02:36:42;;;;;;;;;;;;;;;11.91;83.46;100994.75;4961782;28;1744;-85
2022/08/29 02:39:07;;;;;;;;;;;;;;;11.94;83.18;100993.38;4978031;28;1749;-85
2022/08/29 02:41:33;;;;;;;;;;;;;;;11.91;82.42;100985.72;4994998;28;1346;-85
2022/08/29 02:43:58;;;;;;;;;;;;;;;11.88;82.58;100989.00;4985100;28;1337;-84
2022/08/29 02:46:23;;;;;;;;;;;;;;;12.03;82.51;100988.97;4994134;28;1983;-85
2022/08/29 02:48:48;;;;;;;;;;;;;;;11.89;83.20;100988.72;4992797;28;1785;-85
2022/08/29 02:51:17;;;;;;;;;;;;;;;11.88;82.56;100989.84;4982777;28;1461;-85
2022/08/29 02:53:42;;;;;;;;;;;;;;;11.95;82.49;100989.53;4977716;28;1403;-85
2022/08/29 02:56:08;;;;;;;;;;;;;;;12.01;82.33;100994.72;4982321;28;1365;-85
2022/08/29 02:58:33;;;;;;;;;;;;;;;11.85;82.76;100992.28;4988049;28;1757;-85
2022/08/29 03:00:59;;;;;;;;;;;;;;;11.88;83.48;100987.09;4995165;28;1620;-85
2022/08/29 03:03:24;;;;;;;;;;;;;;;11.87;82.93;100995.59;4994503;28;1268;-85
2022/08/29 03:05:50;;;;;;;;;;;;;;;11.86;82.69;100991.19;4984650;28;1455;-86
2022/08/29 03:08:15;;;;;;;;;;;;;;;11.88;82.56;100986.25;4979076;28;1902;-84
2022/08/29 03:10:41;;;;;;;;;;;;;;;11.69;82.28;100988.72;4996353;28;1466;-85
2022/08/29 03:13:06;;;;;;;;;;;;;;;11.66;82.80;100989.25;4976785;28;1390;-85
2022/08/29 03:15:31;;;;;;;;;;;;;;;11.68;82.58;100993.38;4977057;28;1706;-85
2022/08/29 03:17:57;;;;;;;;;;;;;;;11.46;83.28;100987.38;4983542;28;1387;-84
2022/08/29 03:20:23;;;;;;;;;;;;;;;11.38;83.62;100980.53;4985803;28;1560;-85
2022/08/29 03:22:48;;;;;;;;;;;;;;;11.47;83.22;100979.97;4987776;28;1556;-83
2022/08/29 03:25:14;;;;;;;;;;;;;;;11.34;83.49;100979.41;4994508;28;1710;-84
2022/08/29 03:27:39;;;;;;;;;;;;;;;11.41;83.06;100986.53;4969940;28;1902;-83
2022/08/29 03:30:06;;;;;;;;;;;;;;;11.41;83.21;100987.34;4974780;28;1368;-85
2022/08/29 03:32:31;;;;;;;;;;;;;;;11.46;83.40;100994.78;4998862;28;1326;-85
2022/08/29 03:34:56;;;;;;;;;;;;;;;11.42;83.60;100982.69;4978174;28;1618;-85
2022/08/29 03:37:21;;;;;;;;;;;;;;;11.30;83.21;100983.81;4992943;28;1650;-84
2022/08/29 03:39:46;;;;;;;;;;;;;;;11.38;82.98;100985.19;4987040;28;1671;-85
2022/08/29 03:42:12;;;;;;;;;;;;;;;11.48;82.59;100987.09;5003105;28;1662;-84
2022/08/29 03:44:38;;;;;;;;;;;;;;;11.33;82.09;100982.41;5002175;28;1511;-83
2022/08/29 03:47:04;;;;;;;;;;;;;;;11.26;83.44;100990.09;4992942;28;1906;-84
2022/08/29 03:49:29;;;;;;;;;;;;;;;11.22;83.44;100987.09;4990964;28;1359;-84
2022/08/29 03:51:54;;;;;;;;;;;;;;;11.06;83.57;100981.88;4999120;28;1453;-82
2022/08/29 03:54:20;;;;;;;;;;;;;;;11.10;84.09;100982.97;5006317;28;1364;-84
2022/08/29 03:56:45;;;;;;;;;;;;;;;11.22;83.92;100986.28;4989750;28;1422;-83
2022/08/29 03:59:10;;;;;;;;;;;;;;;11.20;83.10;100988.47;4990687;28;1646;-83
2022/08/29 04:01:36;;;;;;;;;;;;;;;11.22;83.19;100995.31;4992676;28;1427;-84
2022/08/29 04:04:01;;;;;;;;;;;;;;;11.15;83.71;100988.44;5007521;28;1701;-83
2022/08/29 04:06:27;;;;;;;;;;;;;;;10.98;84.38;100986.75;4995927;28;1957;-82
2022/08/29 04:08:53;;;;;;;;;;;;;;;11.01;84.04;100979.94;5005421;28;1826;-82
2022/08/29 04:11:18;;;;;;;;;;;;;;;10.94;84.65;100982.94;4989763;28;1481;-83
2022/08/29 04:13:44;;;;;;;;;;;;;;;10.99;83.94;100982.94;4998977;28;1370;-82
2022/08/29 04:16:13;;;;;;;;;;;;;;;10.92;84.42;100982.38;5003344;28;1468;-82
2022/08/29 04:18:39;;;;;;;;;;;;;;;11.07;83.75;100987.06;4988617;28;1498;-83
2022/08/29 04:21:05;;;;;;;;;;;;;;;11.06;83.51;100995.56;4988814;28;1672;-83
2022/08/29 04:23:31;;;;;;;;;;;;;;;10.92;84.59;101001.56;4995342;28;1376;-83
2022/08/29 04:25:56;;;;;;;;;;;;;;;11.09;84.51;100995.00;4998219;28;1430;-84
2022/08/29 04:28:22;;;;;;;;;;;;;;;11.11;84.05;100999.13;5006283;28;1875;-84
2022/08/29 04:30:48;;;;;;;;;;;;;;;11.02;85.26;100998.03;5004602;28;1476;-84
2022/08/29 04:33:13;;;;;;;;;;;;;;;11.07;85.80;101008.16;5005329;28;1559;-84
2022/08/29 04:35:38;;;;;;;;;;;;;;;10.97;85.69;101007.03;4985888;28;1457;-84
2022/08/29 04:38:04;;;;;;;;;;;;;;;11.09;85.84;101014.19;5001483;28;1400;-83
2022/08/29 04:40:29;;;;;;;;;;;;;;;10.99;85.44;100993.91;4999685;28;1519;-85
2022/08/29 04:42:54;;;;;;;;;;;;;;;11.18;85.34;101018.88;5000278;28;1667;-84
2022/08/29 04:45:22;;;;;;;;;;;;;;;11.20;84.90;101021.34;4985026;28;1473;-84
2022/08/29 04:47:47;;;;;;;;;;;;;;;11.24;85.56;101019.69;4984629;28;1910;-83
2022/08/29 04:50:14;;;;;;;;;;;;;;;11.26;84.88;101023.81;4990292;28;1436;-85
2022/08/29 04:52:39;;;;;;;;;;;;;;;11.29;84.90;101026.00;4997803;28;1520;-84
2022/08/29 04:55:05;;;;;;;;;;;;;;;11.22;85.31;101024.63;4984903;28;1491;-84
2022/08/29 04:57:30;;;;;;;;;;;;;;;11.22;85.41;101013.69;4985945;28;1232;-84
2022/08/29 04:59:57;;;;;;;;;;;;;;;11.09;85.91;101028.72;4983518;28;1393;-83
2022/08/29 05:02:22;;;;;;;;;;;;;;;10.98;86.84;101027.84;4982122;28;1510;-84
2022/08/29 05:04:51;;;;;;;;;;;;;;;11.18;86.37;101029.00;5002036;28;1365;-82
2022/08/29 05:07:19;;;;;;;;;;;;;;;11.10;86.44;101026.78;5000237;28;1894;-83
2022/08/29 05:09:44;;;;;;;;;;;;;;;11.08;86.33;101029.81;4977192;28;1422;-83
2022/08/29 05:12:10;;;;;;;;;;;;;;;11.12;86.28;101030.91;4984121;28;1576;-83
2022/08/29 05:14:36;;;;;;;;;;;;;;;10.93;86.53;101033.34;4982537;28;1752;-83
2022/08/29 05:17:01;;;;;;;;;;;;;;;11.03;86.96;101032.53;4976126;28;1757;-83
2022/08/29 05:19:26;;;;;;;;;;;;;;;10.97;87.29;101031.69;4990616;28;1450;-83
2022/08/29 05:21:56;;;;;;;;;;;;;;;10.96;87.32;101027.31;4991207;28;1070;-83
2022/08/29 05:24:21;;;;;;;;;;;;;;;11.03;87.95;101018.03;4985155;28;1447;-83
2022/08/29 05:26:46;;;;;;;;;;;;;;;11.19;87.20;101023.25;4990958;28;1949;-84
2022/08/29 05:29:12;;;;;;;;;;;;;;;11.15;87.15;101024.88;4999767;28;1291;-84
2022/08/29 05:31:40;;;;;;;;;;;;;;;11.13;87.11;101024.34;5000983;28;1163;-84
2022/08/29 05:34:06;;;;;;;;;;;;;;;11.07;88.06;101022.66;4990899;28;1582;-84
2022/08/29 05:36:32;;;;;;;;;;;;;;;10.98;87.48;101019.63;4996794;28;1499;-83
2022/08/29 05:38:57;;;;;;;;;;;;;;;11.03;87.67;101021.59;4991486;28;1382;-83
2022/08/29 05:41:22;;;;;;;;;;;;;;;11.10;87.19;101033.09;4995671;28;1398;-84
2022/08/29 05:43:47;;;;;;;;;;;;;;;11.04;87.30;101036.94;5001520;28;1438;-84
2022/08/29 05:46:13;;;;;;;;;;;;;;;11.04;87.52;101027.88;4996182;28;1298;-84
2022/08/29 05:48:40;;;;;;;;;;;;;;;11.14;87.71;101027.91;4997317;28;1937;-84
2022/08/29 05:51:05;;;;;;;;;;;;;;;11.19;88.23;101026.00;4982112;28;1350;-83
2022/08/29 05:53:30;;;;;;;;;;;;;;;11.04;88.46;101030.63;4983995;28;1347;-83
2022/08/29 05:55:55;;;;;;;;;;;;;;;11.13;88.52;101034.47;4980831;28;1629;-83
2022/08/29 05:58:21;;;;;;;;;;;;;;;11.20;88.10;101037.78;4997517;28;1478;-83
2022/08/29 06:00:46;;;;;;;;;;;;;;;11.27;88.79;101030.09;4980585;28;1470;-84
2022/08/29 06:03:12;;;;;;;;;;;;;;;11.18;89.33;101026.25;4992234;28;1083;-83
2022/08/29 06:05:38;;;;;;;;;;;;;;;11.24;89.27;101031.47;4999292;28;1374;-83
2022/08/29 06:08:04;;;;;;;;;;;;;;;11.27;89.69;101030.09;4990754;28;1879;-83
2022/08/29 06:10:29;;;;;;;;;;;;;;;11.20;90.54;101038.59;4982586;28;1455;-83
2022/08/29 06:12:54;;;;;;;;;;;;;;;11.30;89.50;101040.53;4979364;28;1366;-84
2022/08/29 06:15:21;;;;;;;;;;;;;;;11.36;89.96;101037.53;5004475;28;1414;-84
2022/08/29 06:17:46;;;;;;;;;;;;;;;11.41;89.89;101041.34;4982445;28;1221;-84
2022/08/29 06:20:11;;;;;;;;;;;;;;;11.47;89.77;101048.50;4982187;28;974;-83
2022/08/29 06:22:37;;;;;;;;;;;;;;;11.56;89.88;101042.22;4999081;28;1671;-83
2022/08/29 06:25:03;;;;;;;;;;;;;;;11.69;89.83;101049.88;4986542;28;1388;-83
2022/08/29 06:27:28;;;;;;;;;;;;;;;11.73;89.55;101048.25;4988519;28;2033;-84
2022/08/29 06:29:53;;;;;;;;;;;;;;;11.70;90.40;101048.78;4981252;28;1193;-84
2022/08/29 06:32:18;;;;;;;;;;;;;;;11.77;90.19;101053.19;4974780;28;1321;-84
2022/08/29 06:34:43;;;;;;;;;;;;;;;11.83;90.00;101052.09;4996204;28;1432;-84
2022/08/29 06:37:09;;;;;;;;;;;;;;;11.88;89.78;101060.31;4988457;28;1621;-84
2022/08/29 06:39:34;;;;;;;;;;;;;;;11.93;89.58;101060.31;4993141;28;1415;-84
2022/08/29 06:41:59;;;;;;;;;;;;;;;11.96;89.99;101063.34;4999482;28;1294;-84
2022/08/29 06:44:25;;;;;;;;;;;;;;;12.02;89.84;101067.72;5004317;28;1462;-84
2022/08/29 06:46:50;;;;;;;;;;;;;;;12.10;90.28;101077.31;4980352;28;1894;-84
2022/08/29 06:49:16;;;;;;;;;;;;;;;12.13;89.94;101069.34;4976925;28;1645;-84
2022/08/29 06:51:43;;;;;;;;;;;;;;;12.20;90.20;101073.72;4979298;28;1377;-84
2022/08/29 06:54:08;;;;;;;;;;;;;;;12.19;90.45;101072.06;4997724;28;1063;-84
2022/08/29 06:56:34;;;;;;;;;;;;;;;12.19;90.31;101067.41;4999462;28;1422;-84
2022/08/29 06:58:59;;;;;;;;;;;;;;;12.26;90.76;101069.84;4998409;28;1310;-84
2022/08/29 07:01:25;;;;;;;;;;;;;;;12.27;90.62;101072.34;4997713;28;1769;-84
2022/08/29 07:03:53;;;;;;;;;;;;;;;12.28;90.64;101082.22;4987562;28;1638;-84
2022/08/29 07:06:18;;;;;;;;;;;;;;;12.38;90.78;101075.88;4977615;28;898;-84
2022/08/29 07:08:44;;;;;;;;;;;;;;;12.45;90.71;101074.50;4980396;28;1898;-84
2022/08/29 07:11:09;;;;;;;;;;;;;;;12.49;90.53;101077.50;4996573;28;1608;-84
2022/08/29 07:13:35;;;;;;;;;;;;;;;12.52;90.78;101068.69;4996945;28;1569;-84
2022/08/29 07:16:00;;;;;;;;;;;;;;;12.63;90.59;101069.50;4976957;28;1578;-84
2022/08/29 07:18:25;;;;;;;;;;;;;;;12.75;89.99;101075.50;4976282;28;1503;-84
2022/08/29 07:20:51;;;;;;;;;;;;;;;12.81;89.78;101074.38;4979480;28;1366;-84
2022/08/29 07:23:16;;;;;;;;;;;;;;;12.89;90.24;101069.09;4981212;28;1792;-84
2022/08/29 07:25:41;;;;;;;;;;;;;;;12.92;90.92;101064.16;4982021;28;1259;-84
2022/08/29 07:28:06;;;;;;;;;;;;;;;12.98;90.19;101065.78;4978373;28;1915;-85
2022/08/29 07:30:32;;;;;;;;;;;;;;;13.05;89.55;101069.84;4987794;28;1150;-84
2022/08/29 07:32:57;;;;;;;;;;;;;;;13.17;89.65;101059.38;4982072;28;1279;-84
2022/08/29 07:35:24;;;;;;;;;;;;;;;13.19;90.72;101054.41;4989994;28;1282;-84
2022/08/29 07:37:49;;;;;;;;;;;;;;;13.17;88.82;101048.38;4999931;28;1821;-84
2022/08/29 07:40:17;;;;;;;;;;;;;;;13.16;88.95;101060.47;4977174;28;1726;-84
2022/08/29 07:42:43;;;;;;;;;;;;;;;13.16;89.76;101059.66;4981367;28;1375;-84
2022/08/29 07:45:10;;;;;;;;;;;;;;;13.13;89.10;101055.53;4999651;28;1282;-85
2022/08/29 07:47:35;;;;;;;;;;;;;;;13.22;89.68;101069.50;5003014;28;1936;-84
2022/08/29 07:50:01;;;;;;;;;;;;;;;13.32;89.86;101076.88;4978317;28;1493;-84
2022/08/29 07:52:27;;;;;;;;;;;;;;;13.35;89.39;101071.63;4988275;28;1145;-83
2022/08/29 07:54:52;;;;;;;;;;;;;;;13.37;88.99;101065.84;4993300;28;1409;-85
2022/08/29 07:57:17;;;;;;;;;;;;;;;13.41;88.47;101066.91;4974430;28;1709;-84
2022/08/29 07:59:43;;;;;;;;;;;;;;;13.46;88.58;101064.13;4977314;28;988;-85
2022/08/29 08:02:09;;;;;;;;;;;;;;;13.51;88.68;101058.59;4990067;28;1460;-84
2022/08/29 08:04:34;;;;;;;;;;;;;;;13.53;88.21;101068.19;4973577;28;1663;-84
2022/08/29 08:06:59;;;;;;;;;;;;;;;13.61;88.26;101064.81;4996006;28;1891;-84
2022/08/29 08:09:25;;;;;;;;;;;;;;;13.65;89.14;101054.09;4999402;28;1310;-82
2022/08/29 08:11:50;;;;;;;;;;;;;;;13.68;88.58;101056.28;4996710;28;1393;-85
2022/08/29 08:14:15;;;;;;;;;;;;;;;13.70;88.57;101061.47;4998970;28;1515;-85
2022/08/29 08:16:40;;;;;;;;;;;;;;;13.73;89.09;101058.16;5000983;28;1113;-86
2022/08/29 08:19:06;;;;;;;;;;;;;;;13.79;87.58;101070.75;4991488;28;1351;-86
2022/08/29 08:21:32;;;;;;;;;;;;;;;13.88;87.82;101064.34;5004362;28;1364;-86
2022/08/29 08:23:57;;;;;;;;;;;;;;;13.99;88.87;101068.66;4997219;28;1174;-86
2022/08/29 08:26:22;;;;;;;;;;;;;;;13.97;89.21;101065.34;4997634;28;1709;-86
2022/08/29 08:28:48;;;;;;;;;;;;;;;13.96;88.23;101068.38;4996639;28;1886;-86
2022/08/29 08:31:14;;;;;;;;;;;;;;;14.00;87.67;101070.28;4985211;28;1210;-85
2022/08/29 08:33:41;;;;;;;;;;;;;;;14.02;87.98;101067.25;4978621;28;1398;-85
2022/08/29 08:36:14;;;;;;;;;;;;;;;14.08;87.34;101065.25;4996780;28;1024;-85
2022/08/29 08:38:39;;;;;;;;;;;;;;;14.13;87.31;101065.19;4978952;28;1378;-86
2022/08/29 08:41:16;;;;;;;;;;;;;;;14.19;88.15;101066.81;4993503;28;1484;-86
2022/08/29 08:43:49;;;;;;;;;;;;;;;14.25;88.49;101062.88;4999189;28;830;-86
2022/08/29 08:46:15;;;;;;;;;;;;;;;14.28;89.02;101059.56;4997350;28;1195;-88
2022/08/29 08:48:40;;;;;;;;;;;;;;;14.28;87.66;101070.56;4998250;28;1895;-86
2022/08/29 08:51:15;;;;;;;;;;;;;;;14.27;87.48;101064.25;4980509;28;1772;-86
2022/08/29 08:53:45;;;;;;;;;;;;;;;14.29;88.28;101055.69;4981354;28;1283;-86
2022/08/29 08:56:29;;;;;;;;;;;;;;;14.34;87.94;101061.16;4999758;28;861;-85
2022/08/29 08:59:01;;;;;;;;;;;;;;;14.40;87.31;101062.75;4981204;28;1250;-85
2022/08/29 09:01:30;;;;;;;;;;;;;;;14.41;88.23;101063.56;4978843;28;1423;-86
2022/08/29 09:04:09;;;;;;;;;;;;;;;14.47;87.90;101057.72;4991479;28;1815;-87
2022/08/29 09:06:53;;;;;;;;;;;;;;;14.52;87.29;101054.91;4994850;28;1902;-85
2022/08/29 09:09:29;;;;;;;;;;;;;;;14.55;88.03;101048.81;4994714;28;1641;-85
2022/08/29 09:11:54;;;;;;;;;;;;;;;14.63;86.78;101050.91;4959463;28;1430;-85
2022/08/29 09:14:19;;;;;;;;;;;;;;;14.61;86.66;101046.81;4965843;28;1375;-85
2022/08/29 09:16:47;;;;;;;;;;;;;;;14.66;87.19;101044.81;4976843;28;1521;-86
2022/08/29 09:19:13;;;;;;;;;;;;;;;14.75;87.74;101047.75;4980809;28;1359;-87
2022/08/29 09:21:51;;;;;;;;;;;;;;;14.85;87.84;101046.78;4996059;28;1084;-85
2022/08/29 09:24:22;;;;;;;;;;;;;;;14.96;88.18;101051.06;4978506;28;1257;-85
2022/08/29 09:26:48;;;;;;;;;;;;;;;14.93;89.13;101040.63;4979679;28;1960;-85
2022/08/29 09:29:18;;;;;;;;;;;;;;;14.95;88.86;101036.47;4979915;28;1250;-86
2022/08/29 09:31:43;;;;;;;;;;;;;;;14.95;88.62;101041.97;4980485;28;1321;-86
2022/08/29 09:34:11;;;;;;;;;;;;;;;15.06;87.85;101045.38;4980300;28;1313;-85
2022/08/29 09:36:44;;;;;;;;;;;;;;;15.13;87.88;101038.41;4980236;28;1759;-86
2022/08/29 09:39:09;;;;;;;;;;;;;;;15.27;86.43;101038.47;4985596;28;1500;-83
2022/08/29 09:41:34;;;;;;;;;;;;;;;15.27;86.16;101043.16;4988517;28;1622;-83
2022/08/29 09:43:59;;;;;;;;;;;;;;;15.27;86.42;101043.16;4970943;28;1780;-85
2022/08/29 09:46:25;;;;;;;;;;;;;;;15.28;87.00;101037.34;4981429;28;1387;-84
2022/08/29 09:48:56;;;;;;;;;;;;;;;15.33;86.86;101040.03;4988497;28;1961;-85
2022/08/29 09:51:35;;;;;;;;;;;;;;;15.33;87.50;101040.03;4997940;28;1298;-87
2022/08/29 09:54:15;;;;;;;;;;;;;;;15.32;87.40;101040.31;4979364;28;1015;-85
2022/08/29 09:56:59;;;;;;;;;;;;;;;15.41;86.92;101041.28;4981862;28;798;-84
2022/08/29 09:59:30;;;;;;;;;;;;;;;15.60;86.49;101044.06;4965316;28;1193;-84
2022/08/29 10:02:07;;;;;;;;;;;;;;;15.75;87.39;101036.34;4985735;28;1112;-84
2022/08/29 10:04:37;;;;;;;;;;;;;;;15.80;85.35;101032.69;4991324;28;1742;-84
2022/08/29 10:07:11;;;;;;;;;;;;;;;15.83;87.04;101035.66;4995706;28;1898;-85
2022/08/29 10:09:36;;;;;;;;;;;;;;;15.91;87.84;101036.09;4996170;28;1755;-85
2022/08/29 10:12:11;;;;;;;;;;;;;;;16.05;85.59;101036.94;5000212;28;1029;-84
2022/08/29 10:14:43;;;;;;;;;;;;;;;16.16;87.39;101041.16;4999026;28;794;-84
2022/08/29 10:20:15;;;;;;;;;;;;;;;16.43;85.46;101037.59;4984616;28;1112;-85
2022/08/29 10:22:48;;;;;;;;;;;;;;;16.41;85.60;101028.81;4967399;28;1768;-84
2022/08/29 10:25:16;;;;;;;;;;;;;;;16.44;86.06;101033.69;4976128;28;759;-85
2022/08/29 10:27:50;;;;;;;;;;;;;;;16.37;83.03;101031.34;4979748;28;1942;-85
2022/08/29 10:30:26;;;;;;;;;;;;;;;16.31;84.75;101034.53;4978522;28;1295;-83
2022/08/29 10:32:54;;;;;;;;;;;;;;;16.37;84.40;101033.28;4996366;28;1789;-83
2022/08/29 10:35:29;;;;;;;;;;;;;;;16.39;85.00;101031.88;4978330;28;1068;-84
2022/08/29 10:38:14;;;;;;;;;;;;;;;16.40;85.56;101033.50;4990506;28;1383;-85
2022/08/29 10:40:46;;;;;;;;;;;;;;;16.36;86.20;101026.13;4985727;28;1713;-84
2022/08/29 10:43:30;;;;;;;;;;;;;;;16.48;84.18;101023.69;4998329;28;858;-85
2022/08/29 10:46:02;;;;;;;;;;;;;;;16.46;84.89;101024.00;4994899;28;1217;-84
2022/08/29 10:48:29;;;;;;;;;;;;;;;16.46;85.94;101026.75;4991802;28;1907;-84
2022/08/29 10:51:04;;;;;;;;;;;;;;;16.52;84.58;101025.50;4994506;28;1341;-84
2022/08/29 10:53:33;;;;;;;;;;;;;;;16.61;84.51;101033.94;4997394;28;1435;-84
2022/08/29 10:56:00;;;;;;;;;;;;;;;16.72;84.29;101040.91;4998508;28;1055;-84
2022/08/29 10:58:31;;;;;;;;;;;;;;;16.70;84.62;101037.63;4996174;28;1434;-83
2022/08/29 11:01:01;;;;;;;;;;;;;;;16.73;84.84;101030.66;4994476;28;1304;-84
2022/08/29 11:03:38;;;;;;;;;;;;;;;16.84;84.24;101027.34;4976566;28;1541;-83
2022/08/29 11:06:08;;;;;;;;;;;;;;;17.02;82.56;101025.59;4983407;28;1378;-85
2022/08/29 11:08:40;;;;;;;;;;;;;;;17.21;81.40;101025.44;4992756;28;1959;-85
2022/08/29 11:11:05;;;;;;;;;;;;;;;17.16;81.81;101020.84;4997186;28;1787;-85
2022/08/29 11:13:34;;;;;;;;;;;;;;;17.16;81.29;101018.09;4976364;28;1845;-85
2022/08/29 11:16:10;;;;;;;;;;;;;;;17.22;83.47;101022.38;4986175;28;1636;-85
2022/08/29 11:18:48;;;;;;;;;;;;;;;17.34;84.44;101013.53;4977845;28;1467;-85
2022/08/29 11:21:25;;;;;;;;;;;;;;;17.40;84.53;101015.03;4980637;28;1530;-85
2022/08/29 11:23:50;;;;;;;;;;;;;;;17.44;81.82;101006.94;4996140;28;1755;-84
2022/08/29 11:26:21;;;;;;;;;;;;;;;17.33;80.94;101011.88;4983996;28;1736;-83
2022/08/29 11:28:57;;;;;;;;;;;;;;;17.45;83.59;101014.91;4980581;28;1871;-83
2022/08/29 11:31:31;;;;;;;;;;;;;;;17.72;83.41;101020.34;4995619;28;1478;-84
2022/08/29 11:34:15;;;;;;;;;;;;;;;17.75;81.79;101008.63;4977054;28;1732;-84
2022/08/29 11:36:40;;;;;;;;;;;;;;;17.74;81.36;101006.19;4993792;28;1751;-84
2022/08/29 11:39:24;;;;;;;;;;;;;;;17.64;81.24;101006.44;4979748;28;1356;-85
2022/08/29 11:41:53;;;;;;;;;;;;;;;17.61;81.53;101009.78;4974408;28;1469;-85
2022/08/29 11:44:24;;;;;;;;;;;;;;;17.66;82.64;101013.31;4986728;28;1417;-85
2022/08/29 11:46:50;;;;;;;;;;;;;;;17.87;81.07;101023.84;4976490;28;1956;-85
2022/08/29 11:49:27;;;;;;;;;;;;;;;17.93;81.15;101019.81;4963668;28;1440;-85
2022/08/29 11:51:58;;;;;;;;;;;;;;;17.91;80.79;101016.53;4978505;28;920;-85
2022/08/29 11:54:23;;;;;;;;;;;;;;;17.94;79.38;101010.38;4980104;28;1415;-85
2022/08/29 11:56:49;;;;;;;;;;;;;;;17.92;80.03;101019.00;4999453;28;1367;-85
2022/08/29 11:59:33;;;;;;;;;;;;;;;18.02;79.06;101009.63;4990886;28;1398;-84
2022/08/29 12:01:59;;;;;;;;;;;;;;;18.12;78.84;101007.38;4997633;28;1246;-85
2022/08/29 12:04:44;;;;;;;;;;;;;;;18.08;80.80;100997.25;4998148;28;1098;-84
2022/08/29 12:07:09;;;;;;;;;;;;;;;18.10;80.00;101006.06;4995898;28;2322;-85
2022/08/29 12:09:42;;;;;;;;;;;;;;;18.19;79.22;101001.38;4997744;28;1772;-85
2022/08/29 12:12:11;;;;;;;;;;;;;;;18.25;78.17;100990.97;4988966;28;1262;-84
2022/08/29 12:14:39;;;;;;;;;;;;;;;18.18;79.43;100988.66;4997751;28;1201;-82
2022/08/29 12:17:06;;;;;;;;;;;;;;;18.15;80.09;100989.28;4979529;28;1466;-84
2022/08/29 12:19:50;;;;;;;;;;;;;;;18.18;79.22;100991.44;4988986;28;1379;-84
2022/08/29 12:22:35;;;;;;;;;;;;;;;18.03;78.85;100987.09;4981913;28;1417;-85
2022/08/29 12:25:20;;;;;;;;;;;;;;;17.99;79.48;100996.38;5003678;28;1433;-84
2022/08/29 12:28:04;;;;;;;;;;;;;;;18.03;79.53;100983.56;4993188;28;1953;-84
2022/08/29 12:30:33;;;;;;;;;;;;;;;18.14;78.28;100985.69;4986763;28;1438;-83
2022/08/29 12:33:06;;;;;;;;;;;;;;;18.41;78.88;100975.53;4985595;28;1363;-85
2022/08/29 12:35:55;;;;;;;;;;;;;;;18.59;80.80;100970.88;4998082;28;1032;-85
2022/08/29 12:38:34;;;;;;;;;;;;;;;18.73;80.22;100969.59;4971157;28;1422;-84
2022/08/29 12:41:15;;;;;;;;;;;;;;;18.88;79.72;100974.69;4998571;28;1158;-85
2022/08/29 12:43:42;;;;;;;;;;;;;;;18.92;80.00;100957.41;4976521;28;1454;-85
2022/08/29 12:46:10;;;;;;;;;;;;;;;19.06;79.58;100969.97;4976729;28;1249;-85
2022/08/29 12:48:41;;;;;;;;;;;;;;;19.16;79.01;100960.50;4994584;28;1945;-86
2022/08/29 12:51:06;;;;;;;;;;;;;;;19.23;79.78;100967.19;4990485;28;1449;-85
2022/08/29 12:53:33;;;;;;;;;;;;;;;19.23;79.40;100953.31;4996419;28;1162;-86
2022/08/29 12:56:00;;;;;;;;;;;;;;;19.28;78.37;100958.72;4960763;28;1197;-86